sensor_id;sensor_type;location;lat;lon;timestamp;P1;durP1;ratioP1;P2;durP2;ratioP2
75935;SDS011;64614;32.062;34.834;2023-07-13T00:01:45;3.67;;;2.00;;
75935;SDS011;64614;32.062;34.834;2023-07-13T00:04:19;2.83;;;1.73;;
75935;SDS011;64614;32.062;34.834;2023-07-13T00:06:46;3.40;;;1.80;;
75935;SDS011;64614;32.062;34.834;2023-07-13T00:09:12;2.33;;;1.58;;
75935;SDS011;64614;32.062;34.834;2023-07-13T00:11:39;3.70;;;1.90;;
75935;SDS011;64614;32.062;34.834;2023-07-13T00:14:06;4.35;;;2.00;;
75935;SDS011;64614;32.062;34.834;2023-07-13T00:16:36;2.65;;;1.77;;
75935;SDS011;64614;32.062;34.834;2023-07-13T00:19:03;3.17;;;1.67;;
75935;SDS011;64614;32.062;34.834;2023-07-13T00:21:29;3.38;;;1.88;;
75935;SDS011;64614;32.062;34.834;2023-07-13T00:23:55;2.80;;;1.75;;
75935;SDS011;64614;32.062;34.834;2023-07-13T00:26:21;2.80;;;1.90;;
75935;SDS011;64614;32.062;34.834;2023-07-13T00:28:47;3.25;;;1.83;;
75935;SDS011;64614;32.062;34.834;2023-07-13T00:31:13;2.70;;;1.88;;
75935;SDS011;64614;32.062;34.834;2023-07-13T00:33:40;2.53;;;1.67;;
75935;SDS011;64614;32.062;34.834;2023-07-13T00:36:07;2.97;;;1.90;;
75935;SDS011;64614;32.062;34.834;2023-07-13T00:38:34;2.35;;;1.83;;
75935;SDS011;64614;32.062;34.834;2023-07-13T00:41:00;2.03;;;1.65;;
75935;SDS011;64614;32.062;34.834;2023-07-13T00:43:27;3.22;;;1.75;;
75935;SDS011;64614;32.062;34.834;2023-07-13T00:48:20;4.15;;;1.83;;
75935;SDS011;64614;32.062;34.834;2023-07-13T00:50:50;3.45;;;1.80;;
75935;SDS011;64614;32.062;34.834;2023-07-13T00:53:22;2.40;;;1.73;;
75935;SDS011;64614;32.062;34.834;2023-07-13T00:55:51;3.28;;;1.95;;
75935;SDS011;64614;32.062;34.834;2023-07-13T00:58:18;3.67;;;1.83;;
75935;SDS011;64614;32.062;34.834;2023-07-13T01:00:45;3.22;;;1.80;;
75935;SDS011;64614;32.062;34.834;2023-07-13T01:05:39;2.80;;;1.70;;
75935;SDS011;64614;32.062;34.834;2023-07-13T01:08:07;3.28;;;1.90;;
75935;SDS011;64614;32.062;34.834;2023-07-13T01:10:33;3.08;;;1.88;;
75935;SDS011;64614;32.062;34.834;2023-07-13T01:13:04;3.75;;;1.83;;
75935;SDS011;64614;32.062;34.834;2023-07-13T01:18:09;3.55;;;2.00;;
75935;SDS011;64614;32.062;34.834;2023-07-13T01:20:37;3.38;;;1.98;;
75935;SDS011;64614;32.062;34.834;2023-07-13T01:23:07;3.15;;;1.90;;
75935;SDS011;64614;32.062;34.834;2023-07-13T01:25:36;2.75;;;1.90;;
75935;SDS011;64614;32.062;34.834;2023-07-13T01:28:05;3.33;;;1.70;;
75935;SDS011;64614;32.062;34.834;2023-07-13T01:30:34;3.42;;;1.83;;
75935;SDS011;64614;32.062;34.834;2023-07-13T01:33:00;3.58;;;1.95;;
75935;SDS011;64614;32.062;34.834;2023-07-13T01:35:27;2.85;;;1.85;;
75935;SDS011;64614;32.062;34.834;2023-07-13T01:37:52;3.20;;;2.05;;
75935;SDS011;64614;32.062;34.834;2023-07-13T01:40:19;2.95;;;1.90;;
75935;SDS011;64614;32.062;34.834;2023-07-13T01:42:45;2.88;;;2.00;;
75935;SDS011;64614;32.062;34.834;2023-07-13T01:45:12;3.40;;;2.00;;
75935;SDS011;64614;32.062;34.834;2023-07-13T01:47:37;2.45;;;1.73;;
75935;SDS011;64614;32.062;34.834;2023-07-13T01:50:03;4.03;;;2.03;;
75935;SDS011;64614;32.062;34.834;2023-07-13T01:52:29;3.85;;;1.95;;
75935;SDS011;64614;32.062;34.834;2023-07-13T01:54:54;4.20;;;2.00;;
75935;SDS011;64614;32.062;34.834;2023-07-13T01:57:20;3.78;;;2.30;;
75935;SDS011;64614;32.062;34.834;2023-07-13T01:59:46;3.28;;;1.98;;
75935;SDS011;64614;32.062;34.834;2023-07-13T02:02:22;4.00;;;2.00;;
75935;SDS011;64614;32.062;34.834;2023-07-13T02:04:51;3.05;;;1.90;;
75935;SDS011;64614;32.062;34.834;2023-07-13T02:07:19;3.45;;;2.30;;
75935;SDS011;64614;32.062;34.834;2023-07-13T02:09:45;2.92;;;1.90;;
75935;SDS011;64614;32.062;34.834;2023-07-13T02:12:11;4.00;;;2.40;;
75935;SDS011;64614;32.062;34.834;2023-07-13T02:14:37;3.47;;;2.00;;
75935;SDS011;64614;32.062;34.834;2023-07-13T02:17:03;4.65;;;2.10;;
75935;SDS011;64614;32.062;34.834;2023-07-13T02:19:29;3.65;;;2.15;;
75935;SDS011;64614;32.062;34.834;2023-07-13T02:21:56;4.55;;;2.13;;
75935;SDS011;64614;32.062;34.834;2023-07-13T02:24:22;3.53;;;2.13;;
75935;SDS011;64614;32.062;34.834;2023-07-13T02:26:48;2.85;;;1.98;;
75935;SDS011;64614;32.062;34.834;2023-07-13T02:29:14;3.50;;;1.90;;
75935;SDS011;64614;32.062;34.834;2023-07-13T02:31:40;3.28;;;1.98;;
75935;SDS011;64614;32.062;34.834;2023-07-13T02:34:11;4.53;;;2.30;;
75935;SDS011;64614;32.062;34.834;2023-07-13T02:36:36;4.38;;;2.58;;
75935;SDS011;64614;32.062;34.834;2023-07-13T02:39:03;3.75;;;2.17;;
75935;SDS011;64614;32.062;34.834;2023-07-13T02:41:30;3.97;;;2.00;;
75935;SDS011;64614;32.062;34.834;2023-07-13T02:43:57;3.95;;;2.10;;
75935;SDS011;64614;32.062;34.834;2023-07-13T02:46:28;3.97;;;2.20;;
75935;SDS011;64614;32.062;34.834;2023-07-13T02:48:59;3.47;;;2.10;;
75935;SDS011;64614;32.062;34.834;2023-07-13T02:51:25;3.42;;;2.08;;
75935;SDS011;64614;32.062;34.834;2023-07-13T02:53:51;3.53;;;1.90;;
75935;SDS011;64614;32.062;34.834;2023-07-13T02:56:16;3.63;;;2.10;;
75935;SDS011;64614;32.062;34.834;2023-07-13T02:58:42;3.22;;;2.00;;
75935;SDS011;64614;32.062;34.834;2023-07-13T03:01:09;3.97;;;2.13;;
75935;SDS011;64614;32.062;34.834;2023-07-13T03:03:36;2.85;;;1.90;;
75935;SDS011;64614;32.062;34.834;2023-07-13T03:06:03;3.97;;;2.10;;
75935;SDS011;64614;32.062;34.834;2023-07-13T03:08:31;4.10;;;2.00;;
75935;SDS011;64614;32.062;34.834;2023-07-13T03:11:01;4.63;;;2.30;;
75935;SDS011;64614;32.062;34.834;2023-07-13T03:13:28;4.30;;;2.10;;
75935;SDS011;64614;32.062;34.834;2023-07-13T03:15:54;4.05;;;2.35;;
75935;SDS011;64614;32.062;34.834;2023-07-13T03:18:19;4.35;;;2.22;;
75935;SDS011;64614;32.062;34.834;2023-07-13T03:20:45;4.72;;;2.35;;
75935;SDS011;64614;32.062;34.834;2023-07-13T03:23:11;7.00;;;2.58;;
75935;SDS011;64614;32.062;34.834;2023-07-13T03:25:40;3.90;;;2.25;;
75935;SDS011;64614;32.062;34.834;2023-07-13T03:33:20;4.78;;;2.42;;
75935;SDS011;64614;32.062;34.834;2023-07-13T03:35:46;4.18;;;2.28;;
75935;SDS011;64614;32.062;34.834;2023-07-13T04:01:28;6.15;;;2.72;;
75935;SDS011;64614;32.062;34.834;2023-07-13T04:03:54;5.65;;;2.92;;
75935;SDS011;64614;32.062;34.834;2023-07-13T04:06:21;5.70;;;2.90;;
75935;SDS011;64614;32.062;34.834;2023-07-13T04:08:50;7.45;;;2.95;;
75935;SDS011;64614;32.062;34.834;2023-07-13T04:11:19;6.13;;;2.90;;
75935;SDS011;64614;32.062;34.834;2023-07-13T04:13:46;6.97;;;3.10;;
75935;SDS011;64614;32.062;34.834;2023-07-13T04:16:13;6.70;;;3.20;;
75935;SDS011;64614;32.062;34.834;2023-07-13T04:18:40;5.25;;;2.70;;
75935;SDS011;64614;32.062;34.834;2023-07-13T04:21:06;6.65;;;3.08;;
75935;SDS011;64614;32.062;34.834;2023-07-13T04:23:34;5.65;;;2.88;;
75935;SDS011;64614;32.062;34.834;2023-07-13T04:26:00;6.13;;;2.83;;
75935;SDS011;64614;32.062;34.834;2023-07-13T04:28:26;5.63;;;2.97;;
75935;SDS011;64614;32.062;34.834;2023-07-13T04:30:52;5.13;;;2.97;;
75935;SDS011;64614;32.062;34.834;2023-07-13T04:33:18;5.78;;;3.10;;
75935;SDS011;64614;32.062;34.834;2023-07-13T04:35:51;6.07;;;3.00;;
75935;SDS011;64614;32.062;34.834;2023-07-13T04:40:57;5.65;;;3.08;;
75935;SDS011;64614;32.062;34.834;2023-07-13T04:43:31;5.65;;;2.95;;
75935;SDS011;64614;32.062;34.834;2023-07-13T04:58:46;6.80;;;3.15;;
75935;SDS011;64614;32.062;34.834;2023-07-13T05:01:12;6.30;;;2.88;;
75935;SDS011;64614;32.062;34.834;2023-07-13T05:03:38;5.55;;;3.00;;
75935;SDS011;64614;32.062;34.834;2023-07-13T05:06:05;5.40;;;2.78;;
75935;SDS011;64614;32.062;34.834;2023-07-13T05:13:42;6.65;;;2.80;;
75935;SDS011;64614;32.062;34.834;2023-07-13T05:16:08;5.18;;;2.72;;
75935;SDS011;64614;32.062;34.834;2023-07-13T05:21:09;5.25;;;2.70;;
75935;SDS011;64614;32.062;34.834;2023-07-13T05:23:37;5.18;;;2.90;;
75935;SDS011;64614;32.062;34.834;2023-07-13T05:26:03;4.45;;;2.60;;
75935;SDS011;64614;32.062;34.834;2023-07-13T05:28:30;4.60;;;2.53;;
75935;SDS011;64614;32.062;34.834;2023-07-13T05:30:56;5.25;;;3.08;;
75935;SDS011;64614;32.062;34.834;2023-07-13T05:33:25;5.32;;;3.00;;
75935;SDS011;64614;32.062;34.834;2023-07-13T05:35:51;4.00;;;2.50;;
75935;SDS011;64614;32.062;34.834;2023-07-13T05:38:16;4.82;;;2.58;;
75935;SDS011;64614;32.062;34.834;2023-07-13T05:40:43;4.90;;;2.88;;
75935;SDS011;64614;32.062;34.834;2023-07-13T05:43:09;5.97;;;2.67;;
75935;SDS011;64614;32.062;34.834;2023-07-13T05:45:35;5.68;;;2.83;;
75935;SDS011;64614;32.062;34.834;2023-07-13T05:50:36;4.28;;;2.50;;
75935;SDS011;64614;32.062;34.834;2023-07-13T05:53:01;4.55;;;2.78;;
75935;SDS011;64614;32.062;34.834;2023-07-13T05:55:27;5.05;;;2.58;;
75935;SDS011;64614;32.062;34.834;2023-07-13T05:57:53;4.25;;;2.80;;
75935;SDS011;64614;32.062;34.834;2023-07-13T06:00:19;4.45;;;2.63;;
75935;SDS011;64614;32.062;34.834;2023-07-13T06:02:45;5.80;;;2.90;;
75935;SDS011;64614;32.062;34.834;2023-07-13T06:23:19;4.57;;;2.90;;
75935;SDS011;64614;32.062;34.834;2023-07-13T06:25:45;4.43;;;2.40;;
75935;SDS011;64614;32.062;34.834;2023-07-13T06:28:11;4.65;;;2.63;;
75935;SDS011;64614;32.062;34.834;2023-07-13T06:30:38;4.82;;;2.70;;
75935;SDS011;64614;32.062;34.834;2023-07-13T06:35:29;4.57;;;2.35;;
75935;SDS011;64614;32.062;34.834;2023-07-13T06:37:55;3.95;;;2.40;;
75935;SDS011;64614;32.062;34.834;2023-07-13T06:40:21;5.22;;;2.70;;
75935;SDS011;64614;32.062;34.834;2023-07-13T06:42:47;3.50;;;2.40;;
75935;SDS011;64614;32.062;34.834;2023-07-13T06:45:13;4.40;;;2.58;;
75935;SDS011;64614;32.062;34.834;2023-07-13T06:47:38;4.25;;;2.50;;
75935;SDS011;64614;32.062;34.834;2023-07-13T06:50:04;5.45;;;2.42;;
75935;SDS011;64614;32.062;34.834;2023-07-13T06:52:30;4.90;;;2.63;;
75935;SDS011;64614;32.062;34.834;2023-07-13T06:54:56;4.10;;;2.42;;
75935;SDS011;64614;32.062;34.834;2023-07-13T06:57:21;5.05;;;2.45;;
75935;SDS011;64614;32.062;34.834;2023-07-13T06:59:47;4.70;;;2.67;;
75935;SDS011;64614;32.062;34.834;2023-07-13T07:02:13;4.68;;;2.50;;
75935;SDS011;64614;32.062;34.834;2023-07-13T07:04:39;4.93;;;2.53;;
75935;SDS011;64614;32.062;34.834;2023-07-13T07:07:04;5.05;;;2.85;;
75935;SDS011;64614;32.062;34.834;2023-07-13T07:09:30;4.53;;;2.38;;
75935;SDS011;64614;32.062;34.834;2023-07-13T07:11:56;4.47;;;2.97;;
75935;SDS011;64614;32.062;34.834;2023-07-13T07:14:24;4.85;;;2.30;;
75935;SDS011;64614;32.062;34.834;2023-07-13T07:16:49;4.90;;;2.47;;
75935;SDS011;64614;32.062;34.834;2023-07-13T07:19:15;4.63;;;2.50;;
75935;SDS011;64614;32.062;34.834;2023-07-13T07:21:41;4.88;;;2.60;;
75935;SDS011;64614;32.062;34.834;2023-07-13T07:24:07;4.95;;;2.80;;
75935;SDS011;64614;32.062;34.834;2023-07-13T07:26:32;4.82;;;2.70;;
75935;SDS011;64614;32.062;34.834;2023-07-13T07:28:58;5.25;;;2.55;;
75935;SDS011;64614;32.062;34.834;2023-07-13T07:31:24;4.38;;;2.47;;
75935;SDS011;64614;32.062;34.834;2023-07-13T07:33:50;4.53;;;2.60;;
75935;SDS011;64614;32.062;34.834;2023-07-13T07:36:16;4.43;;;2.42;;
75935;SDS011;64614;32.062;34.834;2023-07-13T07:38:45;4.00;;;2.35;;
75935;SDS011;64614;32.062;34.834;2023-07-13T07:46:20;4.75;;;2.65;;
75935;SDS011;64614;32.062;34.834;2023-07-13T07:48:46;6.70;;;2.67;;
75935;SDS011;64614;32.062;34.834;2023-07-13T07:51:12;11.68;;;4.10;;
75935;SDS011;64614;32.062;34.834;2023-07-13T07:53:38;17.88;;;4.97;;
75935;SDS011;64614;32.062;34.834;2023-07-13T07:56:03;10.73;;;4.15;;
75935;SDS011;64614;32.062;34.834;2023-07-13T07:58:29;12.15;;;4.40;;
75935;SDS011;64614;32.062;34.834;2023-07-13T08:01:01;13.45;;;4.50;;
75935;SDS011;64614;32.062;34.834;2023-07-13T08:03:28;13.45;;;3.85;;
75935;SDS011;64614;32.062;34.834;2023-07-13T08:05:54;9.32;;;3.83;;
75935;SDS011;64614;32.062;34.834;2023-07-13T08:08:19;10.27;;;3.83;;
75935;SDS011;64614;32.062;34.834;2023-07-13T08:10:45;10.05;;;3.70;;
75935;SDS011;64614;32.062;34.834;2023-07-13T08:13:11;9.90;;;3.25;;
75935;SDS011;64614;32.062;34.834;2023-07-13T08:15:39;10.73;;;3.63;;
75935;SDS011;64614;32.062;34.834;2023-07-13T08:18:05;7.55;;;3.40;;
75935;SDS011;64614;32.062;34.834;2023-07-13T08:20:32;9.07;;;3.25;;
75935;SDS011;64614;32.062;34.834;2023-07-13T08:22:58;7.65;;;3.47;;
75935;SDS011;64614;32.062;34.834;2023-07-13T08:25:25;8.50;;;3.40;;
75935;SDS011;64614;32.062;34.834;2023-07-13T08:27:51;9.63;;;3.53;;
75935;SDS011;64614;32.062;34.834;2023-07-13T08:30:16;7.53;;;3.33;;
75935;SDS011;64614;32.062;34.834;2023-07-13T08:32:42;7.93;;;3.47;;
75935;SDS011;64614;32.062;34.834;2023-07-13T08:35:08;8.55;;;3.50;;
75935;SDS011;64614;32.062;34.834;2023-07-13T08:37:33;8.73;;;3.55;;
75935;SDS011;64614;32.062;34.834;2023-07-13T08:39:59;8.23;;;3.53;;
75935;SDS011;64614;32.062;34.834;2023-07-13T08:42:39;8.43;;;3.30;;
75935;SDS011;64614;32.062;34.834;2023-07-13T08:45:14;7.35;;;3.20;;
75935;SDS011;64614;32.062;34.834;2023-07-13T08:47:55;7.18;;;3.10;;
75935;SDS011;64614;32.062;34.834;2023-07-13T08:50:27;6.07;;;3.00;;
75935;SDS011;64614;32.062;34.834;2023-07-13T08:52:58;8.93;;;3.42;;
75935;SDS011;64614;32.062;34.834;2023-07-13T08:55:33;8.68;;;3.17;;
75935;SDS011;64614;32.062;34.834;2023-07-13T08:58:10;7.28;;;3.17;;
75935;SDS011;64614;32.062;34.834;2023-07-13T09:03:23;6.72;;;3.17;;
75935;SDS011;64614;32.062;34.834;2023-07-13T09:05:54;6.43;;;2.97;;
75935;SDS011;64614;32.062;34.834;2023-07-13T09:16:49;7.57;;;2.80;;
75935;SDS011;64614;32.062;34.834;2023-07-13T09:19:21;6.07;;;2.65;;
75935;SDS011;64614;32.062;34.834;2023-07-13T09:21:53;5.97;;;2.83;;
75935;SDS011;64614;32.062;34.834;2023-07-13T09:24:29;6.13;;;2.70;;
75935;SDS011;64614;32.062;34.834;2023-07-13T09:26:56;4.95;;;2.58;;
75935;SDS011;64614;32.062;34.834;2023-07-13T09:29:29;5.20;;;2.67;;
75935;SDS011;64614;32.062;34.834;2023-07-13T09:32:02;6.80;;;3.00;;
75935;SDS011;64614;32.062;34.834;2023-07-13T09:34:34;4.97;;;2.80;;
75935;SDS011;64614;32.062;34.834;2023-07-13T09:37:01;5.22;;;2.83;;
75935;SDS011;64614;32.062;34.834;2023-07-13T09:39:30;4.82;;;2.70;;
75935;SDS011;64614;32.062;34.834;2023-07-13T09:44:37;6.45;;;2.70;;
75935;SDS011;64614;32.062;34.834;2023-07-13T09:47:18;5.72;;;2.60;;
75935;SDS011;64614;32.062;34.834;2023-07-13T09:52:25;6.25;;;2.75;;
75935;SDS011;64614;32.062;34.834;2023-07-13T09:54:54;6.68;;;2.67;;
75935;SDS011;64614;32.062;34.834;2023-07-13T09:57:25;5.70;;;2.55;;
75935;SDS011;64614;32.062;34.834;2023-07-13T09:59:53;4.60;;;2.30;;
75935;SDS011;64614;32.062;34.834;2023-07-13T10:02:32;5.68;;;2.72;;
75935;SDS011;64614;32.062;34.834;2023-07-13T10:05:05;5.70;;;2.60;;
75935;SDS011;64614;32.062;34.834;2023-07-13T10:07:38;5.25;;;2.55;;
75935;SDS011;64614;32.062;34.834;2023-07-13T10:10:16;5.03;;;2.65;;
75935;SDS011;64614;32.062;34.834;2023-07-13T10:12:48;4.90;;;2.42;;
75935;SDS011;64614;32.062;34.834;2023-07-13T10:15:20;5.28;;;2.63;;
75935;SDS011;64614;32.062;34.834;2023-07-13T10:17:54;5.00;;;2.33;;
75935;SDS011;64614;32.062;34.834;2023-07-13T10:20:35;5.45;;;2.45;;
75935;SDS011;64614;32.062;34.834;2023-07-13T10:23:08;5.53;;;2.70;;
75935;SDS011;64614;32.062;34.834;2023-07-13T10:25:41;4.50;;;2.30;;
75935;SDS011;64614;32.062;34.834;2023-07-13T10:28:21;7.30;;;2.85;;
75935;SDS011;64614;32.062;34.834;2023-07-13T10:30:56;5.03;;;2.33;;
75935;SDS011;64614;32.062;34.834;2023-07-13T10:33:25;4.85;;;2.53;;
75935;SDS011;64614;32.062;34.834;2023-07-13T10:35:53;5.45;;;2.63;;
75935;SDS011;64614;32.062;34.834;2023-07-13T10:38:27;4.93;;;2.50;;
75935;SDS011;64614;32.062;34.834;2023-07-13T10:43:25;4.72;;;2.47;;
75935;SDS011;64614;32.062;34.834;2023-07-13T10:46:04;5.13;;;2.20;;
75935;SDS011;64614;32.062;34.834;2023-07-13T10:48:33;5.50;;;2.55;;
75935;SDS011;64614;32.062;34.834;2023-07-13T10:51:02;4.28;;;2.20;;
75935;SDS011;64614;32.062;34.834;2023-07-13T10:53:32;3.80;;;2.20;;
75935;SDS011;64614;32.062;34.834;2023-07-13T10:58:44;4.38;;;2.42;;
75935;SDS011;64614;32.062;34.834;2023-07-13T11:01:13;4.60;;;2.40;;
75935;SDS011;64614;32.062;34.834;2023-07-13T11:18:50;5.57;;;2.60;;
75935;SDS011;64614;32.062;34.834;2023-07-13T11:21:41;4.07;;;2.33;;
75935;SDS011;64614;32.062;34.834;2023-07-13T11:30:17;5.20;;;2.38;;
75935;SDS011;64614;32.062;34.834;2023-07-13T11:35:18;3.75;;;2.35;;
75935;SDS011;64614;32.062;34.834;2023-07-13T11:37:49;4.60;;;2.40;;
75935;SDS011;64614;32.062;34.834;2023-07-13T11:40:15;5.07;;;2.22;;
75935;SDS011;64614;32.062;34.834;2023-07-13T11:42:41;3.88;;;2.38;;
75935;SDS011;64614;32.062;34.834;2023-07-13T11:45:28;4.45;;;2.35;;
75935;SDS011;64614;32.062;34.834;2023-07-13T11:47:53;3.40;;;2.00;;
75935;SDS011;64614;32.062;34.834;2023-07-13T11:52:49;3.42;;;2.10;;
75935;SDS011;64614;32.062;34.834;2023-07-13T11:55:19;4.68;;;2.20;;
75935;SDS011;64614;32.062;34.834;2023-07-13T11:57:57;4.25;;;2.22;;
75935;SDS011;64614;32.062;34.834;2023-07-13T12:00:31;4.00;;;2.35;;
75935;SDS011;64614;32.062;34.834;2023-07-13T12:02:58;3.83;;;2.20;;
75935;SDS011;64614;32.062;34.834;2023-07-13T12:05:26;4.38;;;2.45;;
75935;SDS011;64614;32.062;34.834;2023-07-13T12:07:52;4.95;;;2.22;;
75935;SDS011;64614;32.062;34.834;2023-07-13T12:10:29;3.92;;;2.33;;
75935;SDS011;64614;32.062;34.834;2023-07-13T12:12:58;3.83;;;2.30;;
75935;SDS011;64614;32.062;34.834;2023-07-13T12:15:40;4.22;;;2.30;;
75935;SDS011;64614;32.062;34.834;2023-07-13T12:18:11;4.18;;;2.10;;
75935;SDS011;64614;32.062;34.834;2023-07-13T12:20:39;4.07;;;2.20;;
75935;SDS011;64614;32.062;34.834;2023-07-13T12:23:05;4.50;;;2.33;;
75935;SDS011;64614;32.062;34.834;2023-07-13T12:25:41;4.97;;;2.20;;
75935;SDS011;64614;32.062;34.834;2023-07-13T12:28:21;4.18;;;2.20;;
75935;SDS011;64614;32.062;34.834;2023-07-13T12:33:23;4.47;;;1.98;;
75935;SDS011;64614;32.062;34.834;2023-07-13T12:35:53;3.72;;;2.20;;
75935;SDS011;64614;32.062;34.834;2023-07-13T12:38:19;3.40;;;2.03;;
75935;SDS011;64614;32.062;34.834;2023-07-13T12:40:48;3.33;;;2.10;;
75935;SDS011;64614;32.062;34.834;2023-07-13T12:43:16;3.47;;;2.03;;
75935;SDS011;64614;32.062;34.834;2023-07-13T12:48:47;3.47;;;2.10;;
75935;SDS011;64614;32.062;34.834;2023-07-13T12:51:14;3.60;;;1.95;;
75935;SDS011;64614;32.062;34.834;2023-07-13T12:53:47;5.30;;;2.30;;
75935;SDS011;64614;32.062;34.834;2023-07-13T12:56:23;3.78;;;2.00;;
75935;SDS011;64614;32.062;34.834;2023-07-13T12:58:58;4.28;;;2.13;;
75935;SDS011;64614;32.062;34.834;2023-07-13T13:01:27;4.50;;;2.20;;
75935;SDS011;64614;32.062;34.834;2023-07-13T13:03:54;2.85;;;1.95;;
75935;SDS011;64614;32.062;34.834;2023-07-13T13:06:22;4.25;;;2.40;;
75935;SDS011;64614;32.062;34.834;2023-07-13T13:08:54;3.72;;;2.28;;
75935;SDS011;64614;32.062;34.834;2023-07-13T13:11:26;3.70;;;2.17;;
75935;SDS011;64614;32.062;34.834;2023-07-13T13:13:54;4.35;;;2.20;;
75935;SDS011;64614;32.062;34.834;2023-07-13T13:16:26;5.10;;;2.30;;
75935;SDS011;64614;32.062;34.834;2023-07-13T13:19:16;5.78;;;2.25;;
75935;SDS011;64614;32.062;34.834;2023-07-13T13:21:44;3.72;;;2.25;;
75935;SDS011;64614;32.062;34.834;2023-07-13T13:24:15;4.95;;;2.30;;
75935;SDS011;64614;32.062;34.834;2023-07-13T13:26:45;4.15;;;2.25;;
75935;SDS011;64614;32.062;34.834;2023-07-13T13:29:12;7.10;;;2.55;;
75935;SDS011;64614;32.062;34.834;2023-07-13T13:31:41;7.60;;;2.60;;
75935;SDS011;64614;32.062;34.834;2023-07-13T13:34:11;9.35;;;2.70;;
75935;SDS011;64614;32.062;34.834;2023-07-13T13:36:39;8.38;;;2.60;;
75935;SDS011;64614;32.062;34.834;2023-07-13T13:39:10;4.20;;;2.60;;
75935;SDS011;64614;32.062;34.834;2023-07-13T13:41:44;8.77;;;3.45;;
75935;SDS011;64614;32.062;34.834;2023-07-13T13:44:09;8.05;;;2.70;;
75935;SDS011;64614;32.062;34.834;2023-07-13T13:46:35;7.03;;;2.50;;
75935;SDS011;64614;32.062;34.834;2023-07-13T13:49:02;8.25;;;2.38;;
75935;SDS011;64614;32.062;34.834;2023-07-13T13:51:27;5.97;;;2.63;;
75935;SDS011;64614;32.062;34.834;2023-07-13T13:53:54;6.20;;;2.55;;
75935;SDS011;64614;32.062;34.834;2023-07-13T13:56:20;4.75;;;2.50;;
75935;SDS011;64614;32.062;34.834;2023-07-13T13:58:46;4.85;;;2.35;;
75935;SDS011;64614;32.062;34.834;2023-07-13T14:01:13;4.85;;;2.17;;
75935;SDS011;64614;32.062;34.834;2023-07-13T14:03:45;4.35;;;2.25;;
75935;SDS011;64614;32.062;34.834;2023-07-13T14:06:14;6.03;;;2.60;;
75935;SDS011;64614;32.062;34.834;2023-07-13T14:08:41;7.65;;;2.63;;
75935;SDS011;64614;32.062;34.834;2023-07-13T14:11:14;5.05;;;2.28;;
75935;SDS011;64614;32.062;34.834;2023-07-13T14:13:44;6.30;;;2.50;;
75935;SDS011;64614;32.062;34.834;2023-07-13T14:16:15;7.97;;;2.40;;
75935;SDS011;64614;32.062;34.834;2023-07-13T14:18:46;7.07;;;2.60;;
75935;SDS011;64614;32.062;34.834;2023-07-13T14:21:16;4.97;;;2.28;;
75935;SDS011;64614;32.062;34.834;2023-07-13T14:23:44;4.15;;;2.10;;
75935;SDS011;64614;32.062;34.834;2023-07-13T14:26:14;6.15;;;2.22;;
75935;SDS011;64614;32.062;34.834;2023-07-13T14:28:43;7.22;;;2.30;;
75935;SDS011;64614;32.062;34.834;2023-07-13T14:31:14;4.82;;;2.15;;
75935;SDS011;64614;32.062;34.834;2023-07-13T14:33:41;7.60;;;2.65;;
75935;SDS011;64614;32.062;34.834;2023-07-13T14:36:17;7.45;;;2.45;;
75935;SDS011;64614;32.062;34.834;2023-07-13T14:38:57;5.45;;;2.55;;
75935;SDS011;64614;32.062;34.834;2023-07-13T14:41:24;6.90;;;2.53;;
75935;SDS011;64614;32.062;34.834;2023-07-13T14:43:51;8.02;;;2.53;;
75935;SDS011;64614;32.062;34.834;2023-07-13T14:46:33;7.05;;;2.25;;
75935;SDS011;64614;32.062;34.834;2023-07-13T14:49:34;5.75;;;2.22;;
75935;SDS011;64614;32.062;34.834;2023-07-13T14:51:58;5.18;;;2.50;;
75935;SDS011;64614;32.062;34.834;2023-07-13T14:54:26;7.68;;;2.15;;
75935;SDS011;64614;32.062;34.834;2023-07-13T14:56:52;4.68;;;2.15;;
75935;SDS011;64614;32.062;34.834;2023-07-13T14:59:18;5.68;;;2.20;;
75935;SDS011;64614;32.062;34.834;2023-07-13T15:01:44;6.38;;;2.20;;
75935;SDS011;64614;32.062;34.834;2023-07-13T15:04:11;5.28;;;2.17;;
75935;SDS011;64614;32.062;34.834;2023-07-13T15:09:20;4.43;;;2.17;;
75935;SDS011;64614;32.062;34.834;2023-07-13T15:11:46;4.95;;;2.25;;
75935;SDS011;64614;32.062;34.834;2023-07-13T15:14:11;4.68;;;2.15;;
75935;SDS011;64614;32.062;34.834;2023-07-13T15:16:37;4.28;;;2.20;;
75935;SDS011;64614;32.062;34.834;2023-07-13T15:19:03;4.55;;;2.10;;
75935;SDS011;64614;32.062;34.834;2023-07-13T15:24:23;6.30;;;2.10;;
75935;SDS011;64614;32.062;34.834;2023-07-13T15:26:49;4.38;;;2.10;;
75935;SDS011;64614;32.062;34.834;2023-07-13T15:29:16;6.43;;;2.08;;
75935;SDS011;64614;32.062;34.834;2023-07-13T15:31:44;4.45;;;2.08;;
75935;SDS011;64614;32.062;34.834;2023-07-13T15:34:12;6.93;;;2.30;;
75935;SDS011;64614;32.062;34.834;2023-07-13T15:36:42;8.07;;;2.50;;
75935;SDS011;64614;32.062;34.834;2023-07-13T15:39:10;7.72;;;2.50;;
75935;SDS011;64614;32.062;34.834;2023-07-13T15:41:40;4.90;;;2.20;;
75935;SDS011;64614;32.062;34.834;2023-07-13T15:44:28;5.50;;;2.40;;
75935;SDS011;64614;32.062;34.834;2023-07-13T15:46:56;3.65;;;2.15;;
75935;SDS011;64614;32.062;34.834;2023-07-13T15:49:28;3.67;;;2.03;;
75935;SDS011;64614;32.062;34.834;2023-07-13T15:51:56;5.00;;;2.15;;
75935;SDS011;64614;32.062;34.834;2023-07-13T15:54:23;3.85;;;2.03;;
75935;SDS011;64614;32.062;34.834;2023-07-13T16:14:55;4.10;;;2.22;;
75935;SDS011;64614;32.062;34.834;2023-07-13T16:17:21;4.03;;;2.25;;
75935;SDS011;64614;32.062;34.834;2023-07-13T16:19:47;4.82;;;2.30;;
75935;SDS011;64614;32.062;34.834;2023-07-13T16:22:21;4.53;;;2.15;;
75935;SDS011;64614;32.062;34.834;2023-07-13T16:24:56;3.97;;;1.90;;
75935;SDS011;64614;32.062;34.834;2023-07-13T16:27:22;3.67;;;2.03;;
75935;SDS011;64614;32.062;34.834;2023-07-13T16:29:55;5.20;;;2.50;;
75935;SDS011;64614;32.062;34.834;2023-07-13T16:32:24;4.22;;;2.30;;
75935;SDS011;64614;32.062;34.834;2023-07-13T16:37:28;4.05;;;2.15;;
75935;SDS011;64614;32.062;34.834;2023-07-13T16:55:36;4.80;;;2.47;;
75935;SDS011;64614;32.062;34.834;2023-07-13T16:58:05;3.95;;;2.33;;
75935;SDS011;64614;32.062;34.834;2023-07-13T17:00:37;7.35;;;2.80;;
75935;SDS011;64614;32.062;34.834;2023-07-13T17:03:04;9.05;;;2.85;;
75935;SDS011;64614;32.062;34.834;2023-07-13T17:05:32;5.03;;;2.53;;
75935;SDS011;64614;32.062;34.834;2023-07-13T17:08:01;7.20;;;2.80;;
75935;SDS011;64614;32.062;34.834;2023-07-13T17:10:46;6.03;;;2.55;;
75935;SDS011;64614;32.062;34.834;2023-07-13T17:13:14;6.75;;;2.80;;
75935;SDS011;64614;32.062;34.834;2023-07-13T17:15:42;6.80;;;2.75;;
75935;SDS011;64614;32.062;34.834;2023-07-13T17:18:11;6.82;;;2.47;;
75935;SDS011;64614;32.062;34.834;2023-07-13T17:20:40;4.45;;;2.35;;
75935;SDS011;64614;32.062;34.834;2023-07-13T17:23:20;7.13;;;2.47;;
75935;SDS011;64614;32.062;34.834;2023-07-13T17:25:52;5.40;;;2.72;;
75935;SDS011;64614;32.062;34.834;2023-07-13T17:31:03;5.35;;;2.92;;
75935;SDS011;64614;32.062;34.834;2023-07-13T17:33:38;7.85;;;2.70;;
75935;SDS011;64614;32.062;34.834;2023-07-13T17:36:14;6.35;;;2.90;;
75935;SDS011;64614;32.062;34.834;2023-07-13T17:38:44;6.18;;;2.50;;
75935;SDS011;64614;32.062;34.834;2023-07-13T17:41:15;6.00;;;2.65;;
75935;SDS011;64614;32.062;34.834;2023-07-13T17:46:15;4.35;;;2.30;;
75935;SDS011;64614;32.062;34.834;2023-07-13T17:49:20;6.82;;;2.60;;
75935;SDS011;64614;32.062;34.834;2023-07-13T17:51:58;5.70;;;2.72;;